Terminal Aerodrome Forecast
Issued by NWS

Home | Current Version | Previous Version | Text Only | Print | Product List | Glossary On
Versions: 1 2 3 4 5 6 7 8 9 10 11 12 13 14 15 16 17 18 19 20 21 22 23 24 25 26
000
FTUS45 KFGZ 210531
TAFPRC
TAF
KPRC 210531Z 2106/2206 21010KT P6SM BKN080
      TEMPO 2112/2115 5SM -RA OVC030
     FM211500 18009KT P6SM OVC070
      TEMPO 2115/2118 P6SM -SHRA OVC060
     FM211800 20015G25KT P6SM OVC050
      TEMPO 2118/2122 P6SM -SHRA OVC040
     FM220100 22008KT P6SM SCT050=

USA.gov is the U.S. government's official web portal to all federal, state and local government web resources and services.